sensor_id;sensor_type;location;lat;lon;timestamp;P1;durP1;ratioP1;P2;durP2;ratioP2
19969;SDS011;10146;47.754;9.566;2023-04-07T00:00:54;10.48;;;8.10;;
19969;SDS011;10146;47.754;9.566;2023-04-07T00:03:20;8.73;;;7.53;;
19969;SDS011;10146;47.754;9.566;2023-04-07T00:05:46;10.55;;;8.70;;
19969;SDS011;10146;47.754;9.566;2023-04-07T00:08:11;9.63;;;8.63;;
19969;SDS011;10146;47.754;9.566;2023-04-07T00:10:37;9.38;;;7.97;;
19969;SDS011;10146;47.754;9.566;2023-04-07T00:13:03;11.30;;;8.38;;
19969;SDS011;10146;47.754;9.566;2023-04-07T00:15:28;9.35;;;8.45;;
19969;SDS011;10146;47.754;9.566;2023-04-07T00:17:54;10.57;;;8.07;;
19969;SDS011;10146;47.754;9.566;2023-04-07T00:20:20;10.25;;;8.63;;
19969;SDS011;10146;47.754;9.566;2023-04-07T00:22:46;10.23;;;8.52;;
19969;SDS011;10146;47.754;9.566;2023-04-07T00:25:12;10.05;;;8.73;;
19969;SDS011;10146;47.754;9.566;2023-04-07T00:27:37;9.52;;;7.95;;
19969;SDS011;10146;47.754;9.566;2023-04-07T00:30:03;8.80;;;8.00;;
19969;SDS011;10146;47.754;9.566;2023-04-07T00:32:29;8.57;;;7.68;;
19969;SDS011;10146;47.754;9.566;2023-04-07T00:34:55;10.25;;;8.70;;
19969;SDS011;10146;47.754;9.566;2023-04-07T00:37:20;9.82;;;8.70;;
19969;SDS011;10146;47.754;9.566;2023-04-07T00:39:46;9.10;;;7.68;;
19969;SDS011;10146;47.754;9.566;2023-04-07T00:42:11;10.38;;;8.68;;
19969;SDS011;10146;47.754;9.566;2023-04-07T00:44:37;10.05;;;8.35;;
19969;SDS011;10146;47.754;9.566;2023-04-07T00:47:03;10.73;;;8.27;;
19969;SDS011;10146;47.754;9.566;2023-04-07T00:49:28;12.98;;;8.80;;
19969;SDS011;10146;47.754;9.566;2023-04-07T00:51:56;12.13;;;9.20;;
19969;SDS011;10146;47.754;9.566;2023-04-07T00:54:22;9.43;;;8.38;;
19969;SDS011;10146;47.754;9.566;2023-04-07T00:56:48;9.52;;;8.20;;
19969;SDS011;10146;47.754;9.566;2023-04-07T00:59:14;8.98;;;7.68;;
19969;SDS011;10146;47.754;9.566;2023-04-07T01:01:54;11.55;;;8.48;;
19969;SDS011;10146;47.754;9.566;2023-04-07T01:04:36;11.23;;;8.77;;
19969;SDS011;10146;47.754;9.566;2023-04-07T01:07:10;8.77;;;7.82;;
19969;SDS011;10146;47.754;9.566;2023-04-07T01:09:45;10.40;;;8.73;;
19969;SDS011;10146;47.754;9.566;2023-04-07T01:12:17;9.68;;;8.68;;
19969;SDS011;10146;47.754;9.566;2023-04-07T01:14:53;9.75;;;8.65;;
19969;SDS011;10146;47.754;9.566;2023-04-07T01:17:28;10.75;;;9.13;;
19969;SDS011;10146;47.754;9.566;2023-04-07T01:19:58;8.98;;;8.07;;
19969;SDS011;10146;47.754;9.566;2023-04-07T01:22:52;10.63;;;9.20;;
19969;SDS011;10146;47.754;9.566;2023-04-07T01:25:32;11.07;;;9.18;;
19969;SDS011;10146;47.754;9.566;2023-04-07T01:31:08;11.20;;;9.70;;
19969;SDS011;10146;47.754;9.566;2023-04-07T01:33:36;9.98;;;8.70;;
19969;SDS011;10146;47.754;9.566;2023-04-07T01:36:02;9.77;;;8.77;;
19969;SDS011;10146;47.754;9.566;2023-04-07T01:38:30;12.30;;;8.95;;
19969;SDS011;10146;47.754;9.566;2023-04-07T01:40:57;10.77;;;9.40;;
19969;SDS011;10146;47.754;9.566;2023-04-07T01:43:24;10.00;;;8.25;;
19969;SDS011;10146;47.754;9.566;2023-04-07T01:45:52;10.63;;;8.60;;
19969;SDS011;10146;47.754;9.566;2023-04-07T01:48:19;10.05;;;8.52;;
19969;SDS011;10146;47.754;9.566;2023-04-07T01:50:45;11.65;;;8.95;;
19969;SDS011;10146;47.754;9.566;2023-04-07T01:53:11;10.82;;;9.55;;
19969;SDS011;10146;47.754;9.566;2023-04-07T01:55:39;11.32;;;9.18;;
19969;SDS011;10146;47.754;9.566;2023-04-07T01:58:06;11.27;;;9.93;;
19969;SDS011;10146;47.754;9.566;2023-04-07T02:00:32;10.55;;;9.20;;
19969;SDS011;10146;47.754;9.566;2023-04-07T02:03:14;11.65;;;9.20;;
19969;SDS011;10146;47.754;9.566;2023-04-07T02:05:47;11.63;;;8.95;;
19969;SDS011;10146;47.754;9.566;2023-04-07T02:08:16;10.75;;;9.20;;
19969;SDS011;10146;47.754;9.566;2023-04-07T02:10:45;10.88;;;9.77;;
19969;SDS011;10146;47.754;9.566;2023-04-07T02:13:14;10.02;;;9.02;;
19969;SDS011;10146;47.754;9.566;2023-04-07T02:15:42;10.43;;;9.32;;
19969;SDS011;10146;47.754;9.566;2023-04-07T02:18:14;9.98;;;8.90;;
19969;SDS011;10146;47.754;9.566;2023-04-07T02:20:42;10.73;;;9.10;;
19969;SDS011;10146;47.754;9.566;2023-04-07T02:23:10;10.65;;;9.50;;
19969;SDS011;10146;47.754;9.566;2023-04-07T02:25:36;10.32;;;8.77;;
19969;SDS011;10146;47.754;9.566;2023-04-07T02:28:02;9.18;;;8.20;;
19969;SDS011;10146;47.754;9.566;2023-04-07T02:30:29;10.90;;;8.35;;
19969;SDS011;10146;47.754;9.566;2023-04-07T02:32:55;9.10;;;7.97;;
19969;SDS011;10146;47.754;9.566;2023-04-07T02:35:21;9.00;;;8.10;;
19969;SDS011;10146;47.754;9.566;2023-04-07T02:37:47;9.32;;;7.63;;
19969;SDS011;10146;47.754;9.566;2023-04-07T02:40:13;7.97;;;7.18;;
19969;SDS011;10146;47.754;9.566;2023-04-07T02:42:39;8.30;;;7.43;;
19969;SDS011;10146;47.754;9.566;2023-04-07T02:45:05;10.88;;;7.60;;
19969;SDS011;10146;47.754;9.566;2023-04-07T02:47:32;8.40;;;7.60;;
19969;SDS011;10146;47.754;9.566;2023-04-07T02:49:58;8.95;;;7.40;;
19969;SDS011;10146;47.754;9.566;2023-04-07T02:52:23;8.85;;;7.95;;
19969;SDS011;10146;47.754;9.566;2023-04-07T02:54:49;9.25;;;7.32;;
19969;SDS011;10146;47.754;9.566;2023-04-07T02:57:15;8.57;;;7.70;;
19969;SDS011;10146;47.754;9.566;2023-04-07T02:59:41;10.02;;;8.02;;
19969;SDS011;10146;47.754;9.566;2023-04-07T03:02:06;8.95;;;7.85;;
19969;SDS011;10146;47.754;9.566;2023-04-07T03:04:32;8.43;;;7.32;;
19969;SDS011;10146;47.754;9.566;2023-04-07T03:06:58;10.77;;;7.60;;
19969;SDS011;10146;47.754;9.566;2023-04-07T03:09:24;10.52;;;8.55;;
19969;SDS011;10146;47.754;9.566;2023-04-07T03:11:50;9.25;;;7.78;;
19969;SDS011;10146;47.754;9.566;2023-04-07T03:14:16;8.88;;;7.68;;
19969;SDS011;10146;47.754;9.566;2023-04-07T03:16:42;8.60;;;7.68;;
19969;SDS011;10146;47.754;9.566;2023-04-07T03:19:08;8.13;;;7.22;;
19969;SDS011;10146;47.754;9.566;2023-04-07T03:21:34;8.20;;;7.40;;
19969;SDS011;10146;47.754;9.566;2023-04-07T03:24:01;8.13;;;7.38;;
19969;SDS011;10146;47.754;9.566;2023-04-07T03:26:27;8.77;;;7.45;;
19969;SDS011;10146;47.754;9.566;2023-04-07T03:28:52;9.10;;;7.65;;
19969;SDS011;10146;47.754;9.566;2023-04-07T03:31:18;8.23;;;7.43;;
19969;SDS011;10146;47.754;9.566;2023-04-07T03:33:43;9.40;;;8.25;;
19969;SDS011;10146;47.754;9.566;2023-04-07T03:36:09;7.88;;;7.18;;
19969;SDS011;10146;47.754;9.566;2023-04-07T03:38:35;8.45;;;6.85;;
19969;SDS011;10146;47.754;9.566;2023-04-07T03:41:01;8.93;;;7.35;;
19969;SDS011;10146;47.754;9.566;2023-04-07T03:43:26;7.95;;;7.15;;
19969;SDS011;10146;47.754;9.566;2023-04-07T03:45:52;9.02;;;7.60;;
19969;SDS011;10146;47.754;9.566;2023-04-07T03:48:18;7.95;;;7.15;;
19969;SDS011;10146;47.754;9.566;2023-04-07T03:50:44;9.10;;;7.90;;
19969;SDS011;10146;47.754;9.566;2023-04-07T03:53:10;7.25;;;6.50;;
19969;SDS011;10146;47.754;9.566;2023-04-07T03:55:37;8.48;;;7.57;;
19969;SDS011;10146;47.754;9.566;2023-04-07T03:58:03;8.43;;;7.50;;
19969;SDS011;10146;47.754;9.566;2023-04-07T04:00:29;8.45;;;7.55;;
19969;SDS011;10146;47.754;9.566;2023-04-07T04:02:57;8.88;;;7.78;;
19969;SDS011;10146;47.754;9.566;2023-04-07T04:05:23;8.55;;;7.70;;
19969;SDS011;10146;47.754;9.566;2023-04-07T04:07:48;10.25;;;7.25;;
19969;SDS011;10146;47.754;9.566;2023-04-07T04:10:15;8.05;;;7.25;;
19969;SDS011;10146;47.754;9.566;2023-04-07T04:12:41;8.48;;;7.57;;
19969;SDS011;10146;47.754;9.566;2023-04-07T04:15:06;8.60;;;7.70;;
19969;SDS011;10146;47.754;9.566;2023-04-07T04:17:32;9.32;;;7.40;;
19969;SDS011;10146;47.754;9.566;2023-04-07T04:19:58;9.48;;;7.63;;
19969;SDS011;10146;47.754;9.566;2023-04-07T04:22:23;8.18;;;7.32;;
19969;SDS011;10146;47.754;9.566;2023-04-07T04:24:49;8.70;;;7.30;;
19969;SDS011;10146;47.754;9.566;2023-04-07T04:27:15;7.60;;;6.80;;
19969;SDS011;10146;47.754;9.566;2023-04-07T04:29:40;9.18;;;7.43;;
19969;SDS011;10146;47.754;9.566;2023-04-07T04:32:06;7.85;;;7.00;;
19969;SDS011;10146;47.754;9.566;2023-04-07T04:34:31;7.45;;;6.65;;
19969;SDS011;10146;47.754;9.566;2023-04-07T04:36:57;7.70;;;6.90;;
19969;SDS011;10146;47.754;9.566;2023-04-07T04:39:22;8.32;;;7.35;;
19969;SDS011;10146;47.754;9.566;2023-04-07T04:41:48;8.63;;;7.28;;
19969;SDS011;10146;47.754;9.566;2023-04-07T04:44:14;9.98;;;7.15;;
19969;SDS011;10146;47.754;9.566;2023-04-07T04:46:39;8.75;;;7.85;;
19969;SDS011;10146;47.754;9.566;2023-04-07T04:49:05;9.48;;;7.82;;
19969;SDS011;10146;47.754;9.566;2023-04-07T04:51:31;8.63;;;7.72;;
19969;SDS011;10146;47.754;9.566;2023-04-07T04:53:56;8.13;;;7.20;;
19969;SDS011;10146;47.754;9.566;2023-04-07T04:56:22;9.95;;;7.88;;
19969;SDS011;10146;47.754;9.566;2023-04-07T04:58:47;9.73;;;7.88;;
19969;SDS011;10146;47.754;9.566;2023-04-07T05:01:13;8.15;;;7.22;;
19969;SDS011;10146;47.754;9.566;2023-04-07T05:03:39;8.95;;;7.85;;
19969;SDS011;10146;47.754;9.566;2023-04-07T05:06:05;8.85;;;7.65;;
19969;SDS011;10146;47.754;9.566;2023-04-07T05:08:31;9.35;;;7.47;;
19969;SDS011;10146;47.754;9.566;2023-04-07T05:10:56;8.70;;;7.80;;
19969;SDS011;10146;47.754;9.566;2023-04-07T05:13:22;8.07;;;7.28;;
19969;SDS011;10146;47.754;9.566;2023-04-07T05:15:49;8.38;;;7.57;;
19969;SDS011;10146;47.754;9.566;2023-04-07T05:18:15;9.05;;;7.00;;
19969;SDS011;10146;47.754;9.566;2023-04-07T05:20:41;8.27;;;7.40;;
19969;SDS011;10146;47.754;9.566;2023-04-07T05:23:08;7.75;;;6.45;;
19969;SDS011;10146;47.754;9.566;2023-04-07T05:25:34;8.00;;;7.20;;
19969;SDS011;10146;47.754;9.566;2023-04-07T05:28:00;8.68;;;6.93;;
19969;SDS011;10146;47.754;9.566;2023-04-07T05:30:26;8.65;;;6.43;;
19969;SDS011;10146;47.754;9.566;2023-04-07T05:32:52;7.38;;;6.68;;
19969;SDS011;10146;47.754;9.566;2023-04-07T05:35:17;9.98;;;7.57;;
19969;SDS011;10146;47.754;9.566;2023-04-07T05:37:43;7.20;;;6.50;;
19969;SDS011;10146;47.754;9.566;2023-04-07T05:40:09;8.55;;;7.03;;
19969;SDS011;10146;47.754;9.566;2023-04-07T05:42:35;8.10;;;7.30;;
19969;SDS011;10146;47.754;9.566;2023-04-07T05:45:00;8.88;;;7.78;;
19969;SDS011;10146;47.754;9.566;2023-04-07T05:47:26;8.63;;;7.32;;
19969;SDS011;10146;47.754;9.566;2023-04-07T05:49:52;8.43;;;7.57;;
19969;SDS011;10146;47.754;9.566;2023-04-07T05:52:17;8.48;;;7.57;;
19969;SDS011;10146;47.754;9.566;2023-04-07T05:54:43;9.98;;;7.95;;
19969;SDS011;10146;47.754;9.566;2023-04-07T05:57:09;8.18;;;7.38;;
19969;SDS011;10146;47.754;9.566;2023-04-07T05:59:34;8.98;;;6.95;;
19969;SDS011;10146;47.754;9.566;2023-04-07T06:02:01;9.40;;;7.70;;
19969;SDS011;10146;47.754;9.566;2023-04-07T06:04:29;8.75;;;7.10;;
19969;SDS011;10146;47.754;9.566;2023-04-07T06:06:55;8.38;;;7.43;;
19969;SDS011;10146;47.754;9.566;2023-04-07T06:09:21;7.88;;;7.07;;
19969;SDS011;10146;47.754;9.566;2023-04-07T06:11:47;8.43;;;7.45;;
19969;SDS011;10146;47.754;9.566;2023-04-07T06:14:12;9.35;;;7.18;;
19969;SDS011;10146;47.754;9.566;2023-04-07T06:16:38;8.20;;;7.35;;
19969;SDS011;10146;47.754;9.566;2023-04-07T06:19:04;8.20;;;7.07;;
19969;SDS011;10146;47.754;9.566;2023-04-07T06:21:31;8.23;;;7.05;;
19969;SDS011;10146;47.754;9.566;2023-04-07T06:23:57;8.32;;;7.15;;
19969;SDS011;10146;47.754;9.566;2023-04-07T06:26:23;7.30;;;5.93;;
19969;SDS011;10146;47.754;9.566;2023-04-07T06:28:48;8.05;;;6.35;;
19969;SDS011;10146;47.754;9.566;2023-04-07T06:31:14;7.13;;;6.30;;
19969;SDS011;10146;47.754;9.566;2023-04-07T06:33:40;7.13;;;6.43;;
19969;SDS011;10146;47.754;9.566;2023-04-07T06:36:06;7.05;;;6.35;;
19969;SDS011;10146;47.754;9.566;2023-04-07T06:38:31;8.75;;;6.85;;
19969;SDS011;10146;47.754;9.566;2023-04-07T06:40:57;6.97;;;6.28;;
19969;SDS011;10146;47.754;9.566;2023-04-07T06:43:23;7.55;;;6.03;;
19969;SDS011;10146;47.754;9.566;2023-04-07T06:45:48;7.03;;;6.32;;
19969;SDS011;10146;47.754;9.566;2023-04-07T06:48:14;7.10;;;6.45;;
19969;SDS011;10146;47.754;9.566;2023-04-07T06:50:40;6.03;;;5.50;;
19969;SDS011;10146;47.754;9.566;2023-04-07T06:53:05;5.85;;;5.35;;
19969;SDS011;10146;47.754;9.566;2023-04-07T06:55:31;5.82;;;5.32;;
19969;SDS011;10146;47.754;9.566;2023-04-07T06:57:56;5.97;;;5.13;;
19969;SDS011;10146;47.754;9.566;2023-04-07T07:00:22;6.53;;;5.93;;
19969;SDS011;10146;47.754;9.566;2023-04-07T07:02:48;6.22;;;5.63;;
19969;SDS011;10146;47.754;9.566;2023-04-07T07:05:14;5.82;;;5.32;;
19969;SDS011;10146;47.754;9.566;2023-04-07T07:07:40;8.15;;;6.38;;
19969;SDS011;10146;47.754;9.566;2023-04-07T07:10:07;5.97;;;5.40;;
19969;SDS011;10146;47.754;9.566;2023-04-07T07:12:34;6.85;;;5.22;;
19969;SDS011;10146;47.754;9.566;2023-04-07T07:15:00;6.68;;;5.20;;
19969;SDS011;10146;47.754;9.566;2023-04-07T07:17:25;5.90;;;5.30;;
19969;SDS011;10146;47.754;9.566;2023-04-07T07:19:51;6.82;;;5.32;;
19969;SDS011;10146;47.754;9.566;2023-04-07T07:22:17;7.13;;;5.45;;
19969;SDS011;10146;47.754;9.566;2023-04-07T07:24:42;5.88;;;5.32;;
19969;SDS011;10146;47.754;9.566;2023-04-07T07:27:08;6.45;;;5.85;;
19969;SDS011;10146;47.754;9.566;2023-04-07T07:29:33;6.10;;;5.50;;
19969;SDS011;10146;47.754;9.566;2023-04-07T07:31:59;5.97;;;5.47;;
19969;SDS011;10146;47.754;9.566;2023-04-07T07:34:24;6.20;;;5.60;;
19969;SDS011;10146;47.754;9.566;2023-04-07T07:36:50;7.57;;;5.43;;
19969;SDS011;10146;47.754;9.566;2023-04-07T07:39:16;5.65;;;5.05;;
19969;SDS011;10146;47.754;9.566;2023-04-07T07:41:41;5.90;;;5.05;;
19969;SDS011;10146;47.754;9.566;2023-04-07T07:44:07;5.40;;;4.90;;
19969;SDS011;10146;47.754;9.566;2023-04-07T07:46:32;7.10;;;5.57;;
19969;SDS011;10146;47.754;9.566;2023-04-07T07:48:58;5.68;;;5.07;;
19969;SDS011;10146;47.754;9.566;2023-04-07T07:51:24;6.63;;;5.90;;
19969;SDS011;10146;47.754;9.566;2023-04-07T07:53:49;5.75;;;5.25;;
19969;SDS011;10146;47.754;9.566;2023-04-07T07:56:15;6.05;;;5.45;;
19969;SDS011;10146;47.754;9.566;2023-04-07T07:58:41;7.07;;;5.90;;
19969;SDS011;10146;47.754;9.566;2023-04-07T08:01:06;6.22;;;5.30;;
19969;SDS011;10146;47.754;9.566;2023-04-07T08:03:32;5.80;;;5.30;;
19969;SDS011;10146;47.754;9.566;2023-04-07T08:05:57;6.65;;;5.13;;
19969;SDS011;10146;47.754;9.566;2023-04-07T08:08:23;5.88;;;5.28;;
19969;SDS011;10146;47.754;9.566;2023-04-07T08:10:48;5.38;;;4.88;;
19969;SDS011;10146;47.754;9.566;2023-04-07T08:13:14;5.22;;;4.68;;
19969;SDS011;10146;47.754;9.566;2023-04-07T08:15:40;6.72;;;5.82;;
19969;SDS011;10146;47.754;9.566;2023-04-07T08:18:05;6.80;;;5.20;;
19969;SDS011;10146;47.754;9.566;2023-04-07T08:20:31;5.15;;;4.65;;
19969;SDS011;10146;47.754;9.566;2023-04-07T08:22:57;4.75;;;4.25;;
19969;SDS011;10146;47.754;9.566;2023-04-07T08:25:23;6.75;;;4.97;;
19969;SDS011;10146;47.754;9.566;2023-04-07T08:27:49;5.60;;;4.65;;
19969;SDS011;10146;47.754;9.566;2023-04-07T08:30:14;5.65;;;4.25;;
19969;SDS011;10146;47.754;9.566;2023-04-07T08:32:41;5.13;;;4.25;;
19969;SDS011;10146;47.754;9.566;2023-04-07T08:35:08;4.10;;;3.40;;
19969;SDS011;10146;47.754;9.566;2023-04-07T08:37:34;5.30;;;3.88;;
19969;SDS011;10146;47.754;9.566;2023-04-07T08:40:02;4.30;;;3.90;;
19969;SDS011;10146;47.754;9.566;2023-04-07T08:42:29;3.50;;;3.20;;
19969;SDS011;10146;47.754;9.566;2023-04-07T08:44:57;3.92;;;3.53;;
19969;SDS011;10146;47.754;9.566;2023-04-07T08:47:33;4.13;;;3.70;;
19969;SDS011;10146;47.754;9.566;2023-04-07T08:50:01;4.07;;;3.67;;
19969;SDS011;10146;47.754;9.566;2023-04-07T08:52:32;5.28;;;4.20;;
19969;SDS011;10146;47.754;9.566;2023-04-07T08:55:03;4.43;;;3.90;;
19969;SDS011;10146;47.754;9.566;2023-04-07T08:57:31;5.32;;;3.83;;
19969;SDS011;10146;47.754;9.566;2023-04-07T08:59:58;5.72;;;4.18;;
19969;SDS011;10146;47.754;9.566;2023-04-07T09:02:34;4.43;;;3.80;;
19969;SDS011;10146;47.754;9.566;2023-04-07T09:05:04;4.80;;;4.20;;
19969;SDS011;10146;47.754;9.566;2023-04-07T09:07:31;4.60;;;3.88;;
19969;SDS011;10146;47.754;9.566;2023-04-07T09:09:58;4.22;;;3.80;;
19969;SDS011;10146;47.754;9.566;2023-04-07T09:12:24;5.78;;;3.92;;
19969;SDS011;10146;47.754;9.566;2023-04-07T09:14:52;4.63;;;4.22;;
19969;SDS011;10146;47.754;9.566;2023-04-07T09:17:18;4.93;;;3.55;;
19969;SDS011;10146;47.754;9.566;2023-04-07T09:19:44;4.25;;;3.85;;
19969;SDS011;10146;47.754;9.566;2023-04-07T09:22:10;4.35;;;3.90;;
19969;SDS011;10146;47.754;9.566;2023-04-07T09:24:38;4.07;;;3.72;;
19969;SDS011;10146;47.754;9.566;2023-04-07T09:29:39;5.25;;;4.00;;
19969;SDS011;10146;47.754;9.566;2023-04-07T09:32:07;4.30;;;3.70;;
19969;SDS011;10146;47.754;9.566;2023-04-07T09:34:34;5.45;;;4.00;;
19969;SDS011;10146;47.754;9.566;2023-04-07T09:37:02;3.65;;;3.13;;
19969;SDS011;10146;47.754;9.566;2023-04-07T09:39:30;4.63;;;3.85;;
19969;SDS011;10146;47.754;9.566;2023-04-07T09:41:55;4.28;;;3.33;;
19969;SDS011;10146;47.754;9.566;2023-04-07T09:44:21;3.72;;;3.33;;
19969;SDS011;10146;47.754;9.566;2023-04-07T09:46:52;5.60;;;3.88;;
19969;SDS011;10146;47.754;9.566;2023-04-07T09:49:19;4.57;;;4.00;;
19969;SDS011;10146;47.754;9.566;2023-04-07T09:52:03;4.53;;;4.03;;
19969;SDS011;10146;47.754;9.566;2023-04-07T09:54:34;4.43;;;3.90;;
19969;SDS011;10146;47.754;9.566;2023-04-07T09:57:02;5.03;;;4.40;;
19969;SDS011;10146;47.754;9.566;2023-04-07T09:59:30;8.68;;;5.90;;
19969;SDS011;10146;47.754;9.566;2023-04-07T10:01:56;5.53;;;3.90;;
19969;SDS011;10146;47.754;9.566;2023-04-07T10:04:23;4.05;;;3.47;;
19969;SDS011;10146;47.754;9.566;2023-04-07T10:06:49;4.70;;;3.65;;
19969;SDS011;10146;47.754;9.566;2023-04-07T10:09:16;4.10;;;3.28;;
19969;SDS011;10146;47.754;9.566;2023-04-07T10:11:43;3.50;;;3.15;;
19969;SDS011;10146;47.754;9.566;2023-04-07T10:14:09;6.63;;;3.33;;
19969;SDS011;10146;47.754;9.566;2023-04-07T10:16:36;3.63;;;3.28;;
19969;SDS011;10146;47.754;9.566;2023-04-07T10:19:03;4.03;;;3.60;;
19969;SDS011;10146;47.754;9.566;2023-04-07T10:21:34;5.82;;;3.45;;
19969;SDS011;10146;47.754;9.566;2023-04-07T10:26:50;4.93;;;3.58;;
19969;SDS011;10146;47.754;9.566;2023-04-07T10:29:20;5.90;;;3.05;;
19969;SDS011;10146;47.754;9.566;2023-04-07T10:31:48;3.88;;;3.00;;
19969;SDS011;10146;47.754;9.566;2023-04-07T10:34:15;4.07;;;3.00;;
19969;SDS011;10146;47.754;9.566;2023-04-07T10:39:47;4.75;;;3.25;;
19969;SDS011;10146;47.754;9.566;2023-04-07T10:45:06;4.32;;;3.20;;
19969;SDS011;10146;47.754;9.566;2023-04-07T10:47:34;3.88;;;2.53;;
19969;SDS011;10146;47.754;9.566;2023-04-07T10:50:20;3.72;;;3.25;;
19969;SDS011;10146;47.754;9.566;2023-04-07T10:55:34;4.45;;;3.03;;
19969;SDS011;10146;47.754;9.566;2023-04-07T11:00:38;4.30;;;2.85;;
19969;SDS011;10146;47.754;9.566;2023-04-07T11:03:12;4.22;;;3.33;;
19969;SDS011;10146;47.754;9.566;2023-04-07T11:05:41;3.88;;;3.10;;
19969;SDS011;10146;47.754;9.566;2023-04-07T11:08:07;3.22;;;2.80;;
19969;SDS011;10146;47.754;9.566;2023-04-07T11:10:33;6.80;;;3.13;;
19969;SDS011;10146;47.754;9.566;2023-04-07T11:13:03;3.35;;;2.70;;
19969;SDS011;10146;47.754;9.566;2023-04-07T11:15:34;4.07;;;2.90;;
19969;SDS011;10146;47.754;9.566;2023-04-07T11:18:08;3.42;;;3.00;;
19969;SDS011;10146;47.754;9.566;2023-04-07T11:20:42;4.10;;;3.47;;
19969;SDS011;10146;47.754;9.566;2023-04-07T11:23:09;4.18;;;3.08;;
19969;SDS011;10146;47.754;9.566;2023-04-07T11:25:36;4.00;;;2.70;;
19969;SDS011;10146;47.754;9.566;2023-04-07T11:28:04;3.88;;;3.20;;
19969;SDS011;10146;47.754;9.566;2023-04-07T11:30:30;4.32;;;3.25;;
19969;SDS011;10146;47.754;9.566;2023-04-07T11:32:56;3.10;;;2.80;;
19969;SDS011;10146;47.754;9.566;2023-04-07T11:35:22;3.97;;;3.03;;
19969;SDS011;10146;47.754;9.566;2023-04-07T11:37:49;5.15;;;3.03;;
19969;SDS011;10146;47.754;9.566;2023-04-07T11:40:34;5.63;;;3.13;;
19969;SDS011;10146;47.754;9.566;2023-04-07T11:43:01;5.63;;;3.40;;
19969;SDS011;10146;47.754;9.566;2023-04-07T11:45:39;5.47;;;3.60;;
19969;SDS011;10146;47.754;9.566;2023-04-07T11:48:04;4.63;;;2.80;;
19969;SDS011;10146;47.754;9.566;2023-04-07T11:50:49;3.88;;;3.58;;
19969;SDS011;10146;47.754;9.566;2023-04-07T11:53:23;3.42;;;3.03;;
19969;SDS011;10146;47.754;9.566;2023-04-07T11:56:00;4.30;;;3.35;;
19969;SDS011;10146;47.754;9.566;2023-04-07T11:58:50;3.95;;;3.47;;
19969;SDS011;10146;47.754;9.566;2023-04-07T12:01:16;5.13;;;3.45;;
19969;SDS011;10146;47.754;9.566;2023-04-07T12:03:55;4.20;;;3.28;;
19969;SDS011;10146;47.754;9.566;2023-04-07T12:06:40;4.45;;;3.55;;
19969;SDS011;10146;47.754;9.566;2023-04-07T12:09:07;7.00;;;3.47;;
19969;SDS011;10146;47.754;9.566;2023-04-07T12:11:48;4.13;;;3.55;;
19969;SDS011;10146;47.754;9.566;2023-04-07T12:14:14;5.03;;;3.10;;
19969;SDS011;10146;47.754;9.566;2023-04-07T12:16:40;4.50;;;3.20;;
19969;SDS011;10146;47.754;9.566;2023-04-07T12:19:06;6.10;;;3.63;;
19969;SDS011;10146;47.754;9.566;2023-04-07T12:21:32;3.95;;;3.30;;
19969;SDS011;10146;47.754;9.566;2023-04-07T12:23:57;5.55;;;3.85;;
19969;SDS011;10146;47.754;9.566;2023-04-07T12:26:23;4.28;;;3.20;;
19969;SDS011;10146;47.754;9.566;2023-04-07T12:28:49;5.22;;;3.45;;
19969;SDS011;10146;47.754;9.566;2023-04-07T12:31:15;5.38;;;3.40;;
19969;SDS011;10146;47.754;9.566;2023-04-07T12:33:40;3.50;;;3.10;;
19969;SDS011;10146;47.754;9.566;2023-04-07T12:36:06;4.97;;;3.78;;
19969;SDS011;10146;47.754;9.566;2023-04-07T12:38:32;4.00;;;3.60;;
19969;SDS011;10146;47.754;9.566;2023-04-07T12:40:57;4.00;;;3.70;;
19969;SDS011;10146;47.754;9.566;2023-04-07T12:43:27;4.85;;;4.03;;
19969;SDS011;10146;47.754;9.566;2023-04-07T12:45:54;5.68;;;4.32;;
19969;SDS011;10146;47.754;9.566;2023-04-07T12:48:20;5.22;;;4.45;;
19969;SDS011;10146;47.754;9.566;2023-04-07T12:50:45;4.47;;;4.07;;
19969;SDS011;10146;47.754;9.566;2023-04-07T12:53:11;5.75;;;4.22;;
19969;SDS011;10146;47.754;9.566;2023-04-07T12:55:37;4.95;;;4.05;;
19969;SDS011;10146;47.754;9.566;2023-04-07T12:58:02;4.47;;;4.07;;
19969;SDS011;10146;47.754;9.566;2023-04-07T13:00:28;4.90;;;3.90;;
19969;SDS011;10146;47.754;9.566;2023-04-07T13:02:54;5.35;;;3.20;;
19969;SDS011;10146;47.754;9.566;2023-04-07T13:05:20;4.75;;;3.95;;
19969;SDS011;10146;47.754;9.566;2023-04-07T13:07:46;4.50;;;3.33;;
19969;SDS011;10146;47.754;9.566;2023-04-07T13:10:11;4.25;;;3.58;;
19969;SDS011;10146;47.754;9.566;2023-04-07T13:12:37;6.47;;;3.72;;
19969;SDS011;10146;47.754;9.566;2023-04-07T13:15:04;4.57;;;3.72;;
19969;SDS011;10146;47.754;9.566;2023-04-07T13:17:30;4.53;;;3.05;;
19969;SDS011;10146;47.754;9.566;2023-04-07T13:19:56;4.25;;;3.33;;
19969;SDS011;10146;47.754;9.566;2023-04-07T13:22:22;3.90;;;3.05;;
19969;SDS011;10146;47.754;9.566;2023-04-07T13:24:48;3.42;;;3.10;;
19969;SDS011;10146;47.754;9.566;2023-04-07T13:27:13;3.22;;;2.70;;
19969;SDS011;10146;47.754;9.566;2023-04-07T13:29:39;5.00;;;3.40;;
19969;SDS011;10146;47.754;9.566;2023-04-07T13:32:08;3.38;;;3.08;;
19969;SDS011;10146;47.754;9.566;2023-04-07T13:34:37;3.28;;;2.63;;
19969;SDS011;10146;47.754;9.566;2023-04-07T13:37:03;4.05;;;2.33;;
19969;SDS011;10146;47.754;9.566;2023-04-07T13:39:30;3.53;;;2.28;;
19969;SDS011;10146;47.754;9.566;2023-04-07T13:41:56;3.08;;;2.05;;
19969;SDS011;10146;47.754;9.566;2023-04-07T13:44:23;2.20;;;2.00;;
19969;SDS011;10146;47.754;9.566;2023-04-07T13:46:50;2.55;;;1.70;;
19969;SDS011;10146;47.754;9.566;2023-04-07T13:49:16;2.45;;;1.40;;
19969;SDS011;10146;47.754;9.566;2023-04-07T13:51:42;2.33;;;1.48;;
19969;SDS011;10146;47.754;9.566;2023-04-07T13:54:07;1.45;;;1.10;;
19969;SDS011;10146;47.754;9.566;2023-04-07T13:56:33;3.13;;;1.52;;
19969;SDS011;10146;47.754;9.566;2023-04-07T13:59:05;1.73;;;1.50;;
19969;SDS011;10146;47.754;9.566;2023-04-07T14:01:31;3.10;;;1.90;;
19969;SDS011;10146;47.754;9.566;2023-04-07T14:03:58;2.38;;;1.70;;
19969;SDS011;10146;47.754;9.566;2023-04-07T14:06:24;1.95;;;1.40;;
19969;SDS011;10146;47.754;9.566;2023-04-07T14:08:50;2.83;;;2.33;;
19969;SDS011;10146;47.754;9.566;2023-04-07T14:11:17;2.72;;;2.30;;
19969;SDS011;10146;47.754;9.566;2023-04-07T14:13:43;2.70;;;2.03;;
19969;SDS011;10146;47.754;9.566;2023-04-07T14:16:10;3.50;;;2.30;;
19969;SDS011;10146;47.754;9.566;2023-04-07T14:18:35;3.40;;;2.60;;
19969;SDS011;10146;47.754;9.566;2023-04-07T14:21:01;5.35;;;2.70;;
19969;SDS011;10146;47.754;9.566;2023-04-07T14:23:27;4.28;;;2.30;;
19969;SDS011;10146;47.754;9.566;2023-04-07T14:25:53;3.35;;;2.10;;
19969;SDS011;10146;47.754;9.566;2023-04-07T14:28:19;3.30;;;2.22;;
19969;SDS011;10146;47.754;9.566;2023-04-07T14:30:45;3.08;;;2.80;;
19969;SDS011;10146;47.754;9.566;2023-04-07T14:33:11;3.70;;;3.30;;
19969;SDS011;10146;47.754;9.566;2023-04-07T14:35:37;3.78;;;3.20;;
19969;SDS011;10146;47.754;9.566;2023-04-07T14:38:03;6.80;;;3.70;;
19969;SDS011;10146;47.754;9.566;2023-04-07T14:40:28;5.80;;;3.65;;
19969;SDS011;10146;47.754;9.566;2023-04-07T14:42:55;5.97;;;4.22;;
19969;SDS011;10146;47.754;9.566;2023-04-07T14:45:22;3.40;;;2.50;;
19969;SDS011;10146;47.754;9.566;2023-04-07T14:47:49;3.90;;;2.80;;
19969;SDS011;10146;47.754;9.566;2023-04-07T14:50:15;3.53;;;2.75;;
19969;SDS011;10146;47.754;9.566;2023-04-07T14:52:40;7.05;;;4.40;;
19969;SDS011;10146;47.754;9.566;2023-04-07T14:55:07;6.43;;;4.10;;
19969;SDS011;10146;47.754;9.566;2023-04-07T14:57:33;5.90;;;4.18;;
19969;SDS011;10146;47.754;9.566;2023-04-07T14:59:58;4.80;;;3.88;;
19969;SDS011;10146;47.754;9.566;2023-04-07T15:02:24;5.05;;;3.90;;
19969;SDS011;10146;47.754;9.566;2023-04-07T15:04:49;4.60;;;3.70;;